Terminal Aerodrome Forecast
Issued by NWS Quad Cities IA IL

Home | Current Version | Previous Version | Text Only | Print | Product List | Glossary On
Versions: 1 2 3 4 5 6 7 8 9 10 11 12 13 14 15 16 17 18 19 20 21 22 23 24 25 26 27
000
FTUS43 KDVN 300757 AAB
TAFDBQ
TAF AMD
KDBQ 300757Z 3008/3106 02004KT 6SM BR SKC
      TEMPO 3008/3010 1/2SM FG VV002
     FM301000 VRB03KT 1/4SM FG VV002
     FM301400 VRB03KT 1SM BR OVC004
     FM301700 16004KT P6SM SCT025=

USA.gov is the U.S. government's official web portal to all federal, state and local government web resources and services.